createdAt,value
2017-07-02T00:01:01.185Z,3.47
2017-07-02T00:03:27.247Z,8.13
2017-07-02T00:05:53.306Z,5.68
2017-07-02T00:08:19.346Z,5.47
2017-07-02T00:10:46.131Z,4.50
2017-07-02T00:13:12.181Z,3.47
2017-07-02T00:15:38.227Z,3.60
2017-07-02T00:18:04.327Z,4.43
2017-07-02T00:20:30.383Z,4.30
2017-07-02T00:22:56.450Z,4.53
2017-07-02T00:25:22.502Z,3.50
2017-07-02T00:27:48.558Z,4.20
2017-07-02T00:30:14.618Z,3.08
2017-07-02T00:32:40.675Z,3.97
2017-07-02T00:35:06.730Z,5.72
2017-07-02T00:37:32.789Z,4.60
2017-07-02T00:39:58.838Z,4.53
2017-07-02T00:42:24.878Z,3.08
2017-07-02T00:44:50.923Z,4.90
2017-07-02T00:47:16.978Z,3.58
2017-07-02T00:49:43.029Z,4.85
2017-07-02T00:52:09.082Z,1.67
2017-07-02T00:54:35.130Z,4.70
2017-07-02T00:57:01.194Z,3.35
2017-07-02T00:59:27.242Z,4.55
2017-07-02T01:01:53.301Z,3.08
2017-07-02T01:04:19.351Z,4.07
2017-07-02T01:09:21.090Z,4.12
2017-07-02T01:11:47.138Z,4.05
2017-07-02T01:14:13.192Z,3.55
2017-07-02T01:33:00.072Z,2.08
2017-07-02T01:35:26.147Z,2.08
2017-07-02T01:37:52.950Z,1.17
2017-07-02T01:40:19.001Z,2.10
2017-07-02T01:42:45.059Z,2.30
2017-07-02T01:45:11.136Z,2.12
2017-07-02T01:47:37.226Z,1.60
2017-07-02T01:50:03.294Z,1.00
2017-07-02T01:52:29.341Z,1.75
2017-07-02T01:54:55.415Z,1.52
2017-07-02T01:57:21.514Z,1.67
2017-07-02T01:59:47.575Z,3.75
2017-07-02T02:02:25.937Z,3.15
2017-07-02T02:04:52.002Z,2.30
2017-07-02T02:07:18.061Z,1.90
2017-07-02T02:09:44.124Z,3.67
2017-07-02T02:12:10.921Z,2.03
2017-07-02T02:14:36.978Z,2.20
2017-07-02T02:17:03.036Z,3.20
2017-07-02T02:19:29.121Z,4.07
2017-07-02T02:21:55.183Z,1.85
2017-07-02T02:24:21.242Z,1.98
2017-07-02T02:26:47.315Z,3.35
2017-07-02T02:29:13.360Z,2.40
2017-07-02T02:31:39.432Z,2.37
2017-07-02T02:34:05.488Z,2.78
2017-07-02T02:36:32.311Z,2.85
2017-07-02T02:38:58.358Z,1.83
2017-07-02T02:41:24.406Z,3.08
2017-07-02T02:43:50.456Z,1.92
2017-07-02T02:46:16.514Z,2.12
2017-07-02T02:48:42.567Z,2.85
2017-07-02T02:51:09.377Z,3.75
2017-07-02T02:53:35.441Z,2.15
2017-07-02T02:56:01.498Z,5.50
2017-07-02T02:58:27.567Z,3.10
2017-07-02T03:00:53.630Z,4.30
2017-07-02T03:03:19.681Z,5.18
2017-07-02T03:05:45.734Z,3.85
2017-07-02T03:08:11.790Z,3.97
2017-07-02T03:10:38.591Z,1.83
2017-07-02T03:13:04.637Z,3.30
2017-07-02T03:15:30.689Z,1.83
2017-07-02T03:17:56.750Z,3.58
2017-07-02T03:20:22.804Z,3.17
2017-07-02T03:22:48.858Z,3.78
2017-07-02T03:25:14.911Z,3.78
2017-07-02T03:27:40.978Z,4.95
2017-07-02T03:30:07.026Z,3.45
2017-07-02T03:32:33.878Z,2.58
2017-07-02T03:34:59.936Z,4.78
2017-07-02T03:37:25.997Z,3.15
2017-07-02T03:39:52.049Z,4.82
2017-07-02T03:42:18.108Z,6.15
2017-07-02T03:44:44.158Z,3.92
2017-07-02T03:47:10.208Z,2.97
2017-07-02T03:49:36.254Z,4.32
2017-07-02T03:52:02.305Z,6.12
2017-07-02T03:54:28.364Z,5.00
2017-07-02T03:56:54.433Z,5.90
2017-07-02T03:59:20.486Z,6.07
2017-07-02T04:01:46.554Z,5.07
2017-07-02T04:04:12.598Z,5.43
2017-07-02T04:06:38.682Z,5.07
2017-07-02T04:09:04.739Z,5.50
2017-07-02T04:11:30.790Z,4.28
2017-07-02T04:13:56.849Z,7.15
2017-07-02T04:16:22.909Z,4.80
2017-07-02T04:18:48.954Z,2.15
2017-07-02T04:21:15.006Z,9.50
2017-07-02T04:23:41.826Z,5.78
2017-07-02T04:26:07.891Z,8.95
2017-07-02T04:28:33.957Z,7.03
2017-07-02T04:31:00.009Z,8.82
2017-07-02T04:33:26.062Z,6.55
2017-07-02T04:35:52.114Z,7.30
2017-07-02T04:38:18.166Z,9.23
2017-07-02T04:40:44.223Z,7.25
2017-07-02T04:43:11.034Z,6.53
2017-07-02T04:45:37.103Z,8.18
2017-07-02T04:48:03.173Z,10.13
2017-07-02T04:50:29.249Z,9.05
2017-07-02T04:52:55.312Z,7.55
2017-07-02T04:55:21.374Z,5.50
2017-07-02T04:57:47.446Z,6.30
2017-07-02T05:00:13.502Z,7.50
2017-07-02T05:02:39.577Z,8.00
2017-07-02T05:05:05.626Z,3.33
2017-07-02T05:07:32.433Z,7.20
2017-07-02T05:09:58.522Z,10.77
2017-07-02T05:12:24.574Z,5.25
2017-07-02T05:15:05.629Z,10.20
2017-07-02T05:17:31.694Z,4.70
2017-07-02T05:19:57.758Z,12.65
2017-07-02T05:22:23.806Z,8.68
2017-07-02T05:24:49.862Z,11.25
2017-07-02T05:27:15.914Z,6.90
2017-07-02T05:29:41.962Z,5.82
2017-07-02T05:32:08.020Z,7.10
2017-07-02T05:34:34.070Z,6.53
2017-07-02T05:37:00.132Z,8.15
2017-07-02T05:39:26.190Z,8.27
2017-07-02T05:41:52.262Z,6.35
2017-07-02T05:44:18.313Z,7.62
2017-07-02T05:46:44.382Z,8.02
2017-07-02T05:49:10.450Z,8.35
2017-07-02T05:51:36.501Z,6.37
2017-07-02T05:54:02.562Z,5.97
2017-07-02T05:56:28.613Z,8.52
2017-07-02T05:58:54.670Z,12.13
2017-07-02T06:01:20.753Z,5.93
2017-07-02T06:03:46.819Z,8.10
2017-07-02T06:06:12.893Z,6.95
2017-07-02T06:08:38.970Z,14.77
2017-07-02T06:11:05.029Z,6.40
2017-07-02T06:13:31.084Z,6.75
2017-07-02T06:15:57.159Z,8.18
2017-07-02T06:18:23.217Z,8.63
2017-07-02T06:20:49.281Z,13.88
2017-07-02T06:23:15.356Z,8.00
2017-07-02T06:25:41.409Z,7.32
2017-07-02T06:28:07.466Z,8.40
2017-07-02T06:30:33.534Z,5.50
2017-07-02T06:32:59.581Z,8.90
2017-07-02T06:35:25.634Z,8.65
2017-07-02T06:37:51.706Z,8.38
2017-07-02T06:40:17.776Z,10.02
2017-07-02T06:42:43.839Z,7.82
2017-07-02T06:45:09.886Z,9.90
2017-07-02T06:47:35.969Z,7.35
2017-07-02T06:50:17.014Z,9.18
2017-07-02T06:52:43.082Z,5.75
2017-07-02T06:55:09.871Z,5.80
2017-07-02T06:57:35.918Z,9.45
2017-07-02T07:00:01.990Z,12.23
2017-07-02T07:02:28.050Z,6.47
2017-07-02T07:05:09.069Z,9.18
2017-07-02T07:07:50.078Z,8.05
2017-07-02T07:10:16.140Z,12.35
2017-07-02T07:12:42.190Z,8.68
2017-07-02T07:15:08.246Z,14.32
2017-07-02T07:17:34.313Z,7.95
2017-07-02T07:20:00.374Z,10.60
2017-07-02T07:22:26.452Z,8.55
2017-07-02T07:24:52.538Z,11.45
2017-07-02T07:27:18.598Z,9.02
2017-07-02T07:29:44.656Z,8.82
2017-07-02T07:32:10.699Z,8.75
2017-07-02T07:34:36.758Z,7.70
2017-07-02T07:37:02.823Z,12.68
2017-07-02T07:39:28.872Z,10.23
2017-07-02T07:41:54.929Z,9.15
2017-07-02T07:44:20.995Z,8.77
2017-07-02T07:46:47.055Z,14.95
2017-07-02T07:49:13.115Z,5.85
2017-07-02T07:51:39.191Z,9.65
2017-07-02T07:54:05.303Z,9.23
2017-07-02T07:56:31.390Z,7.60
2017-07-02T07:58:57.482Z,7.97
2017-07-02T08:01:23.543Z,8.15
2017-07-02T08:04:04.559Z,10.50
2017-07-02T08:06:30.610Z,9.00
2017-07-02T08:08:56.671Z,7.45
2017-07-02T08:11:53.871Z,10.55
2017-07-02T08:14:27.399Z,9.05
2017-07-02T08:16:53.458Z,10.23
2017-07-02T08:19:19.522Z,8.85
2017-07-02T08:22:17.302Z,7.65
2017-07-02T08:24:43.376Z,9.00
2017-07-02T08:27:09.451Z,12.57
2017-07-02T08:29:35.537Z,9.40
2017-07-02T08:32:01.597Z,10.45
2017-07-02T08:34:27.674Z,10.02
2017-07-02T08:37:08.693Z,13.85
2017-07-02T08:39:34.757Z,10.27
2017-07-02T08:42:00.818Z,12.05
2017-07-02T08:44:26.868Z,9.35
2017-07-02T08:46:52.917Z,12.65
2017-07-02T08:49:18.970Z,9.45
2017-07-02T08:51:45.052Z,9.88
2017-07-02T08:54:11.122Z,10.65
2017-07-02T08:56:37.207Z,10.65
2017-07-02T08:59:03.266Z,10.77
2017-07-02T09:01:29.325Z,11.68
2017-07-02T09:03:55.373Z,11.30
2017-07-02T09:06:21.451Z,13.20
2017-07-02T09:08:47.501Z,13.40
2017-07-02T09:11:13.582Z,11.20
2017-07-02T09:13:39.652Z,15.82
2017-07-02T09:16:05.725Z,12.63
2017-07-02T09:18:31.813Z,16.95
2017-07-02T09:20:57.869Z,17.17
2017-07-02T09:23:23.934Z,12.60
2017-07-02T09:25:50.010Z,15.38
2017-07-02T09:28:16.063Z,16.00
2017-07-02T09:30:42.145Z,15.00
2017-07-02T09:33:08.206Z,13.23
2017-07-02T09:35:34.266Z,14.38
2017-07-02T09:38:00.329Z,15.57
2017-07-02T09:40:26.402Z,11.93
2017-07-02T09:42:52.469Z,16.90
2017-07-02T09:45:18.533Z,15.45
2017-07-02T09:47:44.595Z,16.10
2017-07-02T09:50:11.402Z,12.93
2017-07-02T09:52:37.474Z,14.30
2017-07-02T09:55:03.553Z,15.95
2017-07-02T09:57:29.618Z,12.68
2017-07-02T09:59:55.678Z,15.13
2017-07-02T10:02:21.749Z,14.27
2017-07-02T10:04:47.810Z,15.13
2017-07-02T10:07:13.913Z,15.48
2017-07-02T10:09:39.970Z,13.05
2017-07-02T10:12:06.041Z,13.23
2017-07-02T10:14:32.098Z,14.75
2017-07-02T10:16:58.158Z,14.80
2017-07-02T10:19:24.224Z,12.82
2017-07-02T10:21:50.277Z,14.23
2017-07-02T10:24:18.097Z,21.58
2017-07-02T10:26:45.910Z,14.55
2017-07-02T10:29:13.716Z,16.12
2017-07-02T10:31:41.517Z,12.98
2017-07-02T10:34:09.342Z,13.30
2017-07-02T10:36:37.150Z,12.57
2017-07-02T10:39:04.964Z,11.43
2017-07-02T10:41:32.780Z,17.00
2017-07-02T10:44:00.600Z,17.42
2017-07-02T10:46:28.414Z,14.52
2017-07-02T10:48:56.218Z,15.65
2017-07-02T10:51:24.040Z,13.90
2017-07-02T10:53:51.849Z,18.30
2017-07-02T10:56:25.810Z,15.68
2017-07-02T10:58:53.614Z,13.23
2017-07-02T11:01:21.447Z,12.00
2017-07-02T11:03:49.281Z,14.27
2017-07-02T11:06:17.103Z,13.40
2017-07-02T11:08:44.917Z,12.93
2017-07-02T11:11:12.724Z,12.23
2017-07-02T11:13:40.546Z,25.60
2017-07-02T11:16:08.358Z,12.85
2017-07-02T11:18:36.169Z,11.80
2017-07-02T11:21:03.984Z,10.73
2017-07-02T11:23:31.800Z,15.68
2017-07-02T11:25:59.641Z,12.65
2017-07-02T11:28:27.465Z,12.27
2017-07-02T11:30:55.965Z,12.20
2017-07-02T11:33:23.800Z,11.68
2017-07-02T11:35:51.629Z,11.32
2017-07-02T11:38:19.453Z,10.35
2017-07-02T11:40:47.282Z,9.57
2017-07-02T11:43:15.117Z,9.57
2017-07-02T11:46:06.365Z,9.88
2017-07-02T11:48:34.177Z,7.05
2017-07-02T11:51:02.003Z,7.90
2017-07-02T11:53:29.841Z,6.72
2017-07-02T11:55:57.681Z,7.80
2017-07-02T11:58:25.485Z,6.87
2017-07-02T12:00:53.318Z,8.13
2017-07-02T12:03:21.140Z,8.63
2017-07-02T12:05:48.956Z,7.80
2017-07-02T12:08:31.769Z,8.55
2017-07-02T12:10:59.586Z,8.88
2017-07-02T12:13:27.430Z,8.77
2017-07-02T12:15:55.295Z,9.00
2017-07-02T12:18:23.266Z,9.02
2017-07-02T12:20:51.166Z,9.73
2017-07-02T12:23:19.006Z,9.88
2017-07-02T12:25:46.841Z,8.80
2017-07-02T12:28:14.671Z,11.90
2017-07-02T12:30:42.509Z,10.85
2017-07-02T12:33:10.330Z,8.88
2017-07-02T12:38:30.609Z,7.97
2017-07-02T12:41:13.425Z,6.82
2017-07-02T12:43:41.263Z,8.13
2017-07-02T12:46:09.127Z,11.00
2017-07-02T12:48:36.957Z,10.23
2017-07-02T12:51:04.785Z,7.70
2017-07-02T12:53:32.611Z,7.43
2017-07-02T12:56:00.447Z,8.30
2017-07-02T12:58:28.261Z,7.68
2017-07-02T13:00:56.085Z,7.20
2017-07-02T13:03:23.898Z,7.35
2017-07-02T13:05:51.725Z,9.00
2017-07-02T13:08:19.551Z,7.97
2017-07-02T13:10:47.386Z,7.10
2017-07-02T13:13:30.156Z,6.50
2017-07-02T13:15:58.009Z,10.07
2017-07-02T13:18:25.834Z,7.23
2017-07-02T13:20:53.662Z,10.93
2017-07-02T13:23:21.477Z,6.53
2017-07-02T13:25:49.297Z,6.17
2017-07-02T13:28:17.121Z,5.32
2017-07-02T13:30:44.935Z,12.00
2017-07-02T13:33:12.776Z,5.80
2017-07-02T13:35:40.612Z,5.53
2017-07-02T13:38:08.449Z,5.53
2017-07-02T13:40:36.282Z,6.93
2017-07-02T13:43:04.097Z,4.82
2017-07-02T13:45:31.949Z,7.40
2017-07-02T13:47:59.763Z,6.05
2017-07-02T13:50:42.574Z,9.55
2017-07-02T13:53:10.410Z,6.82
2017-07-02T13:55:38.225Z,7.10
2017-07-02T13:58:06.068Z,6.80
2017-07-02T14:00:33.910Z,7.90
2017-07-02T14:03:01.733Z,8.18
2017-07-02T14:05:29.563Z,6.12
2017-07-02T14:07:57.429Z,6.15
2017-07-02T14:10:25.244Z,6.40
2017-07-02T14:12:53.066Z,8.32
2017-07-02T14:15:20.894Z,6.65
2017-07-02T14:17:48.721Z,7.93
2017-07-02T14:20:16.547Z,9.18
2017-07-02T14:22:44.353Z,8.07
2017-07-02T14:25:27.186Z,7.30
2017-07-02T14:27:55.005Z,7.85
2017-07-02T14:30:22.832Z,8.43
2017-07-02T14:32:50.642Z,9.55
2017-07-02T14:35:18.457Z,6.28
2017-07-02T14:37:46.281Z,8.00
2017-07-02T14:40:14.117Z,10.18
2017-07-02T14:42:56.897Z,6.95
2017-07-02T14:45:24.737Z,9.68
2017-07-02T14:47:52.546Z,9.10
2017-07-02T14:50:20.353Z,6.85
2017-07-02T14:52:48.171Z,6.90
2017-07-02T14:55:15.981Z,9.50
2017-07-02T14:57:43.801Z,6.90
2017-07-02T15:00:11.663Z,6.75
2017-07-02T15:02:39.798Z,10.60
2017-07-02T15:05:07.698Z,7.93
2017-07-02T15:07:35.609Z,6.72
2017-07-02T15:10:03.472Z,10.02
2017-07-02T15:12:31.292Z,6.45
2017-07-02T15:14:59.099Z,6.78
2017-07-02T15:17:26.954Z,7.87
2017-07-02T15:19:54.766Z,8.38
2017-07-02T15:22:22.589Z,8.27
2017-07-02T15:24:50.393Z,7.25
2017-07-02T15:27:18.243Z,7.65
2017-07-02T15:29:46.054Z,6.78
2017-07-02T15:32:13.875Z,7.60
2017-07-02T15:34:41.713Z,5.78
2017-07-02T15:37:09.531Z,9.57
2017-07-02T15:39:37.350Z,7.25
2017-07-02T15:42:05.215Z,10.10
2017-07-02T15:44:33.062Z,6.50
2017-07-02T15:47:00.883Z,10.65
2017-07-02T15:49:28.693Z,10.60
2017-07-02T15:51:56.528Z,7.05
2017-07-02T15:54:24.358Z,7.05
2017-07-02T15:56:52.234Z,6.18
2017-07-02T15:59:20.082Z,31.12
2017-07-02T16:01:47.889Z,6.95
2017-07-02T16:04:15.712Z,7.28
2017-07-02T16:06:43.523Z,8.68
2017-07-02T16:09:11.337Z,9.07
2017-07-02T16:11:39.175Z,6.57
2017-07-02T16:14:07.001Z,6.87
2017-07-02T16:16:34.818Z,6.00
2017-07-02T16:19:02.661Z,7.45
2017-07-02T16:21:30.469Z,5.62
2017-07-02T16:23:58.278Z,7.00
2017-07-02T16:26:26.125Z,6.05
2017-07-02T16:28:53.942Z,9.10
2017-07-02T16:31:21.773Z,7.22
2017-07-02T16:33:49.578Z,5.82
2017-07-02T16:36:17.398Z,6.20
2017-07-02T16:38:45.218Z,5.60
2017-07-02T16:41:13.050Z,5.78
2017-07-02T16:43:40.890Z,5.70
2017-07-02T16:46:08.734Z,6.97
2017-07-02T16:48:36.548Z,6.32
2017-07-02T16:51:04.370Z,8.90
2017-07-02T16:53:32.185Z,5.90
2017-07-02T16:55:59.997Z,5.97
2017-07-02T16:58:27.822Z,6.25
2017-07-02T17:00:55.662Z,5.72
2017-07-02T17:03:23.479Z,8.32
2017-07-02T17:05:51.317Z,7.68
2017-07-02T17:08:19.275Z,5.40
2017-07-02T17:10:47.138Z,7.80
2017-07-02T17:13:14.962Z,6.28
2017-07-02T17:15:42.797Z,7.05
2017-07-02T17:18:10.612Z,5.87
2017-07-02T17:20:38.435Z,6.40
2017-07-02T17:23:06.256Z,5.55
2017-07-02T17:25:34.082Z,6.47
2017-07-02T17:28:01.905Z,5.68
2017-07-02T17:30:29.717Z,7.43
2017-07-02T17:32:57.534Z,8.18
2017-07-02T17:35:25.357Z,6.07
2017-07-02T17:37:53.177Z,6.70
2017-07-02T17:40:21.005Z,7.03
2017-07-02T17:42:48.826Z,6.55
2017-07-02T17:45:16.687Z,6.75
2017-07-02T17:47:44.504Z,4.68
2017-07-02T17:50:12.345Z,7.15
2017-07-02T17:52:40.174Z,5.90
2017-07-02T17:55:08.004Z,6.82
2017-07-02T17:57:35.840Z,5.35
2017-07-02T18:00:03.662Z,8.95
2017-07-02T18:02:31.548Z,4.82
2017-07-02T18:04:59.382Z,4.60
2017-07-02T18:07:27.239Z,5.65
2017-07-02T18:09:55.054Z,4.68
2017-07-02T18:12:22.865Z,5.07
2017-07-02T18:14:50.685Z,4.40
2017-07-02T18:17:18.506Z,3.83
2017-07-02T18:19:46.334Z,4.57
2017-07-02T18:22:14.144Z,4.28
2017-07-02T18:24:41.974Z,4.00
2017-07-02T18:27:09.782Z,6.28
2017-07-02T18:29:37.594Z,4.75
2017-07-02T18:32:05.408Z,7.18
2017-07-02T18:34:33.239Z,5.35
2017-07-02T18:37:01.097Z,5.75
2017-07-02T18:39:28.909Z,5.35
2017-07-02T18:41:56.749Z,5.22
2017-07-02T18:44:24.562Z,6.87
2017-07-02T18:46:52.429Z,5.10
2017-07-02T18:49:20.241Z,5.70
2017-07-02T18:52:03.042Z,6.15
2017-07-02T18:54:30.862Z,5.37
2017-07-02T18:56:58.692Z,5.55
2017-07-02T18:59:26.502Z,5.43
2017-07-02T19:01:54.318Z,5.60
2017-07-02T19:04:22.131Z,4.65
2017-07-02T19:06:49.938Z,5.00
2017-07-02T19:09:17.737Z,5.95
2017-07-02T19:11:45.579Z,4.78
2017-07-02T19:14:13.393Z,4.55
2017-07-02T19:16:41.205Z,7.37
2017-07-02T19:19:32.805Z,5.60
2017-07-02T19:22:00.614Z,5.55
2017-07-02T19:24:28.451Z,6.55
2017-07-02T19:26:56.299Z,6.95
2017-07-02T19:29:24.126Z,6.03
2017-07-02T19:31:51.935Z,6.78
2017-07-02T19:34:19.762Z,6.70
2017-07-02T19:36:47.581Z,7.05
2017-07-02T19:39:15.393Z,7.00
2017-07-02T19:41:43.214Z,4.18
2017-07-02T19:44:11.026Z,7.03
2017-07-02T19:46:38.864Z,4.90
2017-07-02T19:49:06.679Z,6.75
2017-07-02T19:51:34.533Z,6.65
2017-07-02T19:54:02.345Z,6.00
2017-07-02T19:56:30.153Z,6.45
2017-07-02T19:58:57.960Z,6.07
2017-07-02T20:01:25.775Z,6.15
2017-07-02T20:03:53.585Z,4.10
2017-07-02T20:06:21.431Z,5.47
2017-07-02T20:08:49.247Z,8.13
2017-07-02T20:11:17.058Z,6.00
2017-07-02T20:13:45.073Z,6.40
2017-07-02T20:16:12.998Z,7.43
2017-07-02T20:18:40.817Z,7.05
2017-07-02T20:21:08.644Z,8.07
2017-07-02T20:23:36.449Z,7.60
2017-07-02T20:26:04.293Z,7.35
2017-07-02T20:28:32.122Z,7.15
2017-07-02T20:30:59.930Z,8.73
2017-07-02T20:33:28.193Z,6.07
2017-07-02T20:35:56.005Z,6.60
2017-07-02T20:38:23.811Z,7.97
2017-07-02T20:40:51.649Z,6.43
2017-07-02T20:43:19.656Z,8.30
2017-07-02T20:45:48.422Z,6.87
2017-07-02T20:48:31.167Z,6.03
2017-07-02T20:50:58.977Z,8.73
2017-07-02T20:53:26.785Z,8.98
2017-07-02T20:55:54.638Z,8.05
2017-07-02T20:58:22.455Z,7.50
2017-07-02T21:00:50.271Z,7.50
2017-07-02T21:03:18.090Z,7.97
2017-07-02T21:05:45.927Z,8.18
2017-07-02T21:08:13.737Z,7.30
2017-07-02T21:10:41.553Z,7.55
2017-07-02T21:13:24.337Z,7.55
2017-07-02T21:15:52.151Z,7.78
2017-07-02T21:18:19.991Z,8.63
2017-07-02T21:20:47.800Z,7.25
2017-07-02T21:23:15.616Z,5.93
2017-07-02T21:25:46.325Z,7.45
2017-07-02T21:28:14.159Z,8.80
2017-07-02T21:30:41.967Z,6.90
2017-07-02T21:33:09.786Z,7.55
2017-07-02T21:35:37.613Z,7.15
2017-07-02T21:38:05.426Z,7.50
2017-07-02T21:40:33.257Z,7.65
2017-07-02T21:43:01.089Z,8.10
2017-07-02T21:45:28.899Z,8.55
2017-07-02T21:47:56.715Z,8.68
2017-07-02T21:50:24.528Z,8.40
2017-07-02T21:52:52.351Z,7.65
2017-07-02T21:55:20.174Z,4.53
2017-07-02T21:57:48.050Z,10.02
2017-07-02T22:00:15.894Z,6.62
2017-07-02T22:02:43.705Z,7.70
2017-07-02T22:05:11.539Z,7.12
2017-07-02T22:07:39.368Z,8.05
2017-07-02T22:10:07.173Z,6.50
2017-07-02T22:12:34.990Z,6.07
2017-07-02T22:15:02.810Z,7.35
2017-07-02T22:17:30.621Z,8.20
2017-07-02T22:19:58.442Z,7.35
2017-07-02T22:22:26.254Z,8.45
2017-07-02T22:24:54.067Z,6.82
2017-07-02T22:27:21.885Z,9.25
2017-07-02T22:29:49.699Z,6.47
2017-07-02T22:32:17.513Z,5.05
2017-07-02T22:34:45.338Z,6.32
2017-07-02T22:37:13.145Z,8.20
2017-07-02T22:39:40.963Z,5.82
2017-07-02T22:42:08.777Z,11.95
2017-07-02T22:44:36.581Z,6.80
2017-07-02T22:47:04.386Z,7.25
2017-07-02T22:49:32.206Z,6.05
2017-07-02T22:52:00.013Z,7.97
2017-07-02T22:54:27.837Z,6.45
2017-07-02T22:56:55.646Z,5.30
2017-07-02T22:59:23.466Z,6.87
2017-07-02T23:01:51.273Z,6.65
2017-07-02T23:04:19.086Z,7.60
2017-07-02T23:06:46.903Z,4.15
2017-07-02T23:09:14.717Z,5.05
2017-07-02T23:11:42.538Z,7.15
2017-07-02T23:14:10.378Z,6.97
2017-07-02T23:16:38.192Z,4.85
2017-07-02T23:19:06.022Z,7.30
2017-07-02T23:21:33.842Z,6.50
2017-07-02T23:24:01.666Z,6.12
2017-07-02T23:26:29.481Z,5.80
2017-07-02T23:28:57.295Z,7.55
2017-07-02T23:31:25.118Z,8.85
2017-07-02T23:33:52.933Z,7.50
2017-07-02T23:36:20.737Z,6.37
2017-07-02T23:38:48.545Z,7.00
2017-07-02T23:41:16.361Z,6.78
2017-07-02T23:43:44.165Z,7.80
2017-07-02T23:46:11.981Z,9.10
2017-07-02T23:48:39.803Z,7.80
2017-07-02T23:51:07.617Z,5.30
2017-07-02T23:53:35.433Z,7.45
2017-07-02T23:56:03.254Z,7.10
2017-07-02T23:58:31.070Z,7.12
